Time;durP1;ratioP1;P1;durP2;ratioP2;P2;SDS_P1;SDS_P2;PMS_P1;PMS_P2;Temp;Humidity;BMP_temperature;BMP_pressure;BME280_temperature;BME280_humidity;BME280_pressure;Samples;Min_cycle;Max_cycle;Signal;HPM_P1;HPM_P2
2022/08/20 00:00:42;;;;;;;8.77;4.80;;;;;;;23.86;55.27;94227.25;5088286;28;20680;-73
2022/08/20 00:03:15;;;;;;;6.07;4.25;;;;;;;23.81;55.33;94231.28;5074594;28;20259;-73
2022/08/20 00:05:46;;;;;;;5.97;4.03;;;;;;;23.81;55.38;94231.28;5087859;28;20218;-73
2022/08/20 00:08:13;;;;;;;4.28;3.15;;;;;;;23.78;55.54;94226.59;5088223;28;20251;-72
2022/08/20 00:10:43;;;;;;;8.73;4.80;;;;;;;23.78;55.46;94231.34;5088172;28;20602;-73
2022/08/20 00:13:12;;;;;;;5.15;3.63;;;;;;;23.85;55.37;94220.94;5087535;28;20224;-73
2022/08/20 00:15:40;;;;;;;6.57;3.90;;;;;;;23.89;55.19;94220.88;5087808;28;20209;-73
2022/08/20 00:18:07;;;;;;;7.65;5.03;;;;;;;23.91;55.23;94226.78;5087610;28;20263;-73
2022/08/20 00:20:38;;;;;;;5.05;3.70;;;;;;;23.95;55.06;94231.03;5088695;28;20607;-73
2022/08/20 00:23:06;;;;;;;8.50;3.83;;;;;;;23.99;54.81;94228.97;5091786;28;20206;-73
2022/08/20 00:25:33;;;;;;;3.83;2.95;;;;;;;24.08;54.66;94229.19;5090975;28;20237;-74
2022/08/20 00:28:02;;;;;;;5.75;3.83;;;;;;;24.13;54.57;94224.38;5091586;28;20199;-73
2022/08/20 00:30:31;;;;;;;4.85;3.80;;;;;;;24.16;54.38;94218.78;5091394;28;20687;-72
2022/08/20 00:33:01;;;;;;;5.13;2.92;;;;;;;24.19;54.29;94220.69;5091630;28;20297;-72
2022/08/20 00:35:32;;;;;;;4.80;3.28;;;;;;;24.17;54.51;94222.34;5091692;28;20210;-73
2022/08/20 00:37:59;;;;;;;6.72;3.85;;;;;;;24.03;54.91;94210.34;5091675;28;20247;-73
2022/08/20 00:40:31;;;;;;;6.63;4.30;;;;;;;23.98;54.94;94219.13;5078115;28;20256;-73
2022/08/20 00:43:01;;;;;;;7.03;4.80;;;;;;;23.92;55.24;94222.78;5090983;28;20247;-72
2022/08/20 00:45:30;;;;;;;8.43;4.75;;;;;;;23.91;55.44;94224.00;5091274;28;20222;-72
2022/08/20 00:47:58;;;;;;;5.28;4.72;;;;;;;23.70;55.57;94203.81;5091337;28;20262;-73
2022/08/20 00:50:31;;;;;;;8.55;5.18;;;;;;;23.82;55.70;94221.78;5091330;28;20256;-72
2022/08/20 00:52:58;;;;;;;7.35;4.63;;;;;;;23.74;55.95;94212.84;5091083;28;20198;-73
2022/08/20 00:55:26;;;;;;;7.30;4.88;;;;;;;23.66;56.34;94213.34;5090442;28;20210;-73
2022/08/20 00:57:58;;;;;;;8.07;4.90;;;;;;;23.61;56.39;94216.63;5090957;28;20208;-73
2022/08/20 01:00:27;;;;;;;7.40;5.47;;;;;;;23.61;56.44;94216.63;5091104;28;20260;-73
2022/08/20 01:02:55;;;;;;;6.68;4.80;;;;;;;23.60;56.36;94206.75;5091393;28;20303;-73
2022/08/20 01:05:23;;;;;;;6.10;5.30;;;;;;;23.59;56.34;94196.91;5091083;28;20230;-73
2022/08/20 01:07:52;;;;;;;5.68;4.13;;;;;;;23.58;56.61;94200.88;5090859;28;20275;-74
2022/08/20 01:10:22;;;;;;;7.07;4.13;;;;;;;23.57;56.65;94199.31;5091409;28;20218;-74
2022/08/20 01:12:50;;;;;;;5.03;4.05;;;;;;;23.59;56.51;94191.38;5091112;28;20195;-74
2022/08/20 01:15:23;;;;;;;6.22;4.20;;;;;;;23.60;56.49;94187.41;5090453;28;20720;-73
2022/08/20 01:17:52;;;;;;;6.80;3.90;;;;;;;23.59;56.54;94185.84;5090596;28;20717;-73
2022/08/20 01:20:24;;;;;;;5.40;3.42;;;;;;;23.61;56.49;94183.44;5090534;28;20198;-72
2022/08/20 01:25:49;;;;;;;7.63;5.50;;;;;;;23.57;56.65;94189.03;5090052;28;20379;-72
2022/08/20 01:28:19;;;;;;;5.85;4.93;;;;;;;23.59;56.65;94185.84;5090326;28;20355;-73
2022/08/20 01:30:46;;;;;;;6.75;5.03;;;;;;;23.52;56.87;94180.41;5090027;28;20654;-73
2022/08/20 01:33:13;;;;;;;5.47;4.07;;;;;;;23.43;57.28;94177.38;5090194;28;20716;-73
2022/08/20 01:35:43;;;;;;;6.80;4.85;;;;;;;23.39;57.40;94183.75;5090592;28;20205;-72
2022/08/20 01:38:11;;;;;;;5.32;3.70;;;;;;;23.37;57.26;94190.94;5090534;28;20274;-74
2022/08/20 01:41:25;;;;;;;5.13;4.20;;;;;;;23.32;57.63;94194.94;5090646;28;20610;-73
2022/08/20 01:43:55;;;;;;;8.00;4.15;;;;;;;23.32;57.59;94178.34;5026813;28;20204;-73
2022/08/20 01:46:24;;;;;;;7.82;4.22;;;;;;;23.34;57.65;94173.19;5083897;28;20230;-73
2022/08/20 01:48:52;;;;;;;4.88;3.63;;;;;;;23.44;57.19;94173.44;5090744;28;20306;-72
2022/08/20 01:51:23;;;;;;;5.38;3.80;;;;;;;23.51;57.03;94170.56;5090079;28;20248;-74
2022/08/20 01:53:53;;;;;;;5.78;4.22;;;;;;;23.45;57.06;94153.66;5090067;28;20191;-74
2022/08/20 01:56:24;;;;;;;6.28;4.07;;;;;;;23.48;57.20;94163.09;5090275;28;20225;-73
2022/08/20 01:58:55;;;;;;;7.25;4.47;;;;;;;23.44;57.30;94163.16;5090252;28;20202;-72
2022/08/20 02:01:26;;;;;;;8.55;5.78;;;;;;;23.38;57.63;94162.84;5089364;28;20277;-74
2022/08/20 02:03:53;;;;;;;4.72;3.60;;;;;;;23.30;57.95;94166.16;5089857;28;20588;-73
2022/08/20 02:06:24;;;;;;;7.22;4.00;;;;;;;23.24;58.13;94170.59;5089724;28;20222;-74
2022/08/20 02:08:52;;;;;;;8.07;4.43;;;;;;;23.14;58.66;94166.81;5089549;28;20216;-72
2022/08/20 02:11:19;;;;;;;7.50;4.00;;;;;;;23.13;58.64;94162.47;5089932;28;20208;-72
2022/08/20 02:13:51;;;;;;;7.70;4.63;;;;;;;23.11;58.81;94166.84;5088930;28;20202;-73
2022/08/20 02:16:21;;;;;;;7.32;4.97;;;;;;;23.02;59.12;94159.09;5077349;28;20322;-72
2022/08/20 02:18:49;;;;;;;8.80;4.25;;;;;;;23.02;59.02;94164.63;5089630;28;20295;-74
2022/08/20 02:21:16;;;;;;;9.75;4.07;;;;;;;23.08;58.90;94174.00;5089864;28;20224;-74
2022/08/20 02:23:43;;;;;;;8.73;4.07;;;;;;;23.07;58.97;94164.16;5089421;28;20356;-74
2022/08/20 02:26:10;;;;;;;5.13;3.47;;;;;;;23.02;59.09;94170.94;5089628;28;20299;-73
2022/08/20 02:28:36;;;;;;;5.97;4.30;;;;;;;22.97;59.35;94162.31;5089289;28;20205;-72
2022/08/20 02:31:07;;;;;;;6.93;4.43;;;;;;;22.99;59.36;94159.94;5088874;28;20258;-73
2022/08/20 02:33:36;;;;;;;6.30;5.07;;;;;;;23.05;59.03;94163.78;5089064;28;20293;-74
2022/08/20 02:36:03;;;;;;;7.50;5.57;;;;;;;23.10;58.85;94155.00;5089250;28;20678;-74
2022/08/20 02:38:33;;;;;;;9.07;3.90;;;;;;;23.13;58.82;94168.00;5089403;28;20231;-73
2022/08/20 02:41:00;;;;;;;7.55;4.75;;;;;;;23.24;58.28;94165.06;5089091;28;20243;-74
2022/08/20 02:43:28;;;;;;;7.47;5.22;;;;;;;23.24;58.44;94165.84;5088572;28;21008;-73
2022/08/20 02:45:55;;;;;;;7.55;5.70;;;;;;;23.23;58.43;94161.53;5088965;28;20766;-73
2022/08/20 02:48:22;;;;;;;8.23;5.60;;;;;;;23.19;58.58;94155.28;5089047;28;20210;-74
2022/08/20 02:50:53;;;;;;;6.30;5.22;;;;;;;23.21;58.61;94160.38;5088842;28;20206;-74
2022/08/20 02:53:21;;;;;;;7.40;5.55;;;;;;;23.18;58.73;94162.00;5089097;28;20216;-74
2022/08/20 02:55:48;;;;;;;6.00;4.30;;;;;;;23.06;58.96;94159.84;5088866;28;20759;-74
2022/08/20 02:58:15;;;;;;;7.45;5.45;;;;;;;23.08;59.08;94168.50;5089016;28;20326;-74
2022/08/20 03:00:43;;;;;;;11.23;4.40;;;;;;;22.92;59.64;94171.88;5088920;28;20298;-74
2022/08/20 03:03:11;;;;;;;7.82;4.18;;;;;;;22.81;59.93;94171.28;5088573;28;20198;-74
2022/08/20 03:05:40;;;;;;;13.05;4.45;;;;;;;22.66;60.38;94178.94;5089190;28;20606;-74
2022/08/20 03:08:11;;;;;;;10.63;4.35;;;;;;;22.46;60.37;94183.53;5075381;28;20206;-74
2022/08/20 03:10:40;;;;;;;6.85;5.57;;;;;;;22.34;61.81;94181.34;5089062;28;20202;-74
2022/08/20 03:13:11;;;;;;;8.70;4.53;;;;;;;22.12;61.57;94185.56;5088823;28;20198;-73
2022/08/20 03:15:40;;;;;;;6.32;5.28;;;;;;;22.07;61.41;94181.25;5088928;28;20263;-73
2022/08/20 03:18:07;;;;;;;10.65;4.60;;;;;;;21.97;61.96;94180.16;5088077;28;20585;-73
2022/08/20 03:20:35;;;;;;;8.77;6.35;;;;;;;21.95;61.92;94179.78;5088723;28;20232;-74
2022/08/20 03:23:02;;;;;;;8.43;5.15;;;;;;;21.88;62.12;94187.34;5088830;28;20263;-74
2022/08/20 03:25:30;;;;;;;9.95;4.15;;;;;;;21.78;62.97;94186.28;5088203;28;20234;-74
2022/08/20 03:27:57;;;;;;;6.75;5.07;;;;;;;21.54;63.52;94177.06;5088125;28;20668;-74
2022/08/20 03:30:29;;;;;;;5.90;4.38;;;;;;;21.65;63.06;94190.75;5088669;28;20335;-74
2022/08/20 03:32:56;;;;;;;10.65;6.18;;;;;;;21.69;63.12;94185.97;5088222;28;20205;-74
2022/08/20 03:35:25;;;;;;;8.55;5.75;;;;;;;21.73;62.92;94199.75;5088441;28;20515;-74
2022/08/20 03:37:52;;;;;;;7.78;5.80;;;;;;;21.68;63.44;94189.94;5088090;28;20214;-73
2022/08/20 03:40:23;;;;;;;7.30;5.10;;;;;;;21.69;62.66;94185.97;5088541;28;20202;-74
2022/08/20 03:42:52;;;;;;;6.80;4.32;;;;;;;21.75;63.60;94200.88;5088557;28;20194;-73
2022/08/20 03:45:20;;;;;;;7.32;4.70;;;;;;;21.72;62.81;94207.22;5075169;28;20236;-73
2022/08/20 03:47:48;;;;;;;8.80;4.90;;;;;;;21.70;63.32;94204.09;5088127;28;20603;-73
2022/08/20 03:50:15;;;;;;;8.25;4.53;;;;;;;21.74;62.60;94199.31;5088245;28;20202;-73
2022/08/20 03:52:42;;;;;;;6.45;4.45;;;;;;;21.70;62.89;94197.78;5088570;28;20267;-73
2022/08/20 03:55:11;;;;;;;6.80;4.20;;;;;;;21.73;62.93;94203.25;5090352;28;20202;-73
2022/08/20 03:57:45;;;;;;;5.70;4.15;;;;;;;21.75;62.72;94198.13;5092423;28;20244;-73
2022/08/20 04:00:18;;;;;;;11.40;5.18;;;;;;;21.71;63.55;94202.91;5092508;28;20284;-74
2022/08/20 04:02:45;;;;;;;6.80;4.35;;;;;;;21.78;63.24;94210.31;5092205;28;20567;-74
2022/08/20 04:05:12;;;;;;;7.70;5.47;;;;;;;21.92;63.01;94205.44;5091892;28;20256;-74
2022/08/20 04:07:40;;;;;;;7.00;4.60;;;;;;;22.07;62.66;94194.28;5091925;28;20259;-74
2022/08/20 04:10:09;;;;;;;10.80;5.43;;;;;;;22.53;61.67;94205.53;5091912;28;20198;-74
2022/08/20 04:12:39;;;;;;;10.75;4.75;;;;;;;22.94;60.74;94207.38;5091854;28;20206;-74
2022/08/20 04:15:09;;;;;;;8.07;4.60;;;;;;;23.17;60.09;94204.66;5092192;28;20199;-73
2022/08/20 04:17:39;;;;;;;9.23;5.60;;;;;;;23.33;59.80;94199.28;5091510;28;20242;-73
2022/08/20 04:20:08;;;;;;;10.30;6.45;;;;;;;23.74;58.71;94209.28;5091762;28;20222;-73
2022/08/20 04:22:35;;;;;;;9.52;6.22;;;;;;;24.20;57.42;94215.94;5091833;28;20326;-73
2022/08/20 04:25:03;;;;;;;6.68;5.85;;;;;;;23.98;57.96;94196.97;5092077;28;20198;-73
2022/08/20 04:27:31;;;;;;;6.45;5.38;;;;;;;23.95;58.50;94199.81;5078443;28;20205;-73
2022/08/20 04:29:58;;;;;;;10.27;5.82;;;;;;;24.55;56.99;94204.19;5091969;28;20632;-73
2022/08/20 04:32:25;;;;;;;8.38;5.53;;;;;;;24.97;56.02;94205.31;5092055;28;20376;-74
2022/08/20 04:34:53;;;;;;;9.65;5.05;;;;;;;25.78;53.64;94205.34;5090918;28;20202;-73
2022/08/20 04:37:21;;;;;;;5.82;4.30;;;;;;;26.31;52.21;94194.06;5091613;28;20677;-74
2022/08/20 04:40:52;;;;;;;11.60;5.43;;;;;;;27.00;49.97;94200.81;5091422;28;20203;-73
2022/08/20 04:42:35;;;;;;;7.13;4.57;;;;;;;27.33;48.47;94195.03;5091467;28;20202;-73
2022/08/20 04:45:02;;;;;;;10.20;5.22;;;;;;;27.70;48.08;94187.91;5091419;28;20818;-73
2022/08/20 04:47:29;;;;;;;7.47;5.93;;;;;;;28.03;47.07;94208.63;5091817;28;20194;-74
2022/08/20 04:49:59;;;;;;;7.80;5.68;;;;;;;28.18;46.74;94201.34;5091595;28;20733;-73
2022/08/20 04:52:26;;;;;;;8.60;5.50;;;;;;;28.44;46.00;94199.25;5091436;28;20236;-73
2022/08/20 04:54:55;;;;;;;7.13;5.75;;;;;;;29.25;44.62;94194.63;5091575;28;20251;-74
2022/08/20 04:57:22;;;;;;;8.00;6.10;;;;;;;29.86;43.33;94195.78;5091792;28;20487;-74
2022/08/20 04:59:50;;;;;;;10.18;6.20;;;;;;;30.14;42.10;94185.44;5091185;28;20203;-73
2022/08/20 05:02:17;;;;;;;8.55;6.07;;;;;;;30.56;41.10;94185.63;5091220;28;20221;-73
2022/08/20 05:04:45;;;;;;;7.63;5.80;;;;;;;30.13;41.96;94184.66;5090373;28;20216;-73
2022/08/20 05:07:14;;;;;;;7.72;5.70;;;;;;;30.47;41.60;94191.22;5090393;28;20749;-72
2022/08/20 05:09:41;;;;;;;7.32;6.07;;;;;;;31.22;39.90;94189.38;5091191;28;20242;-74
2022/08/20 05:12:08;;;;;;;10.18;5.85;;;;;;;31.50;39.08;94195.66;5090857;28;20214;-73
2022/08/20 05:14:35;;;;;;;6.68;5.70;;;;;;;31.72;38.33;94198.22;5090821;28;20252;-73
2022/08/20 05:17:03;;;;;;;7.28;6.15;;;;;;;31.13;39.49;94197.06;5090742;28;20319;-73
2022/08/20 05:19:31;;;;;;;6.35;5.68;;;;;;;31.54;39.10;94198.28;5090405;28;20245;-73
2022/08/20 05:21:57;;;;;;;8.95;6.53;;;;;;;32.05;38.18;94203.78;5090810;28;20259;-73
2022/08/20 05:24:26;;;;;;;8.30;5.93;;;;;;;32.04;38.87;94196.63;5090704;28;20259;-72
2022/08/20 05:26:54;;;;;;;7.72;5.75;;;;;;;32.43;36.95;94195.44;5090360;28;20279;-73
2022/08/20 05:29:22;;;;;;;9.50;5.82;;;;;;;31.57;38.28;94186.91;5090269;28;20240;-74
2022/08/20 05:31:49;;;;;;;8.32;6.65;;;;;;;32.56;37.06;94175.53;5090516;28;20207;-73
2022/08/20 05:34:16;;;;;;;7.25;5.90;;;;;;;31.84;38.49;94182.44;5090387;28;20617;-73
2022/08/20 05:36:45;;;;;;;8.00;5.32;;;;;;;32.74;37.17;94171.81;5089533;28;20611;-73
2022/08/20 05:39:13;;;;;;;7.60;6.15;;;;;;;31.95;38.05;94188.28;5090271;28;20205;-73
2022/08/20 05:41:41;;;;;;;8.10;6.65;;;;;;;32.60;36.98;94178.94;5090078;28;20745;-73
2022/08/20 05:44:12;;;;;;;7.88;5.80;;;;;;;33.48;35.54;94181.00;5090143;28;20347;-73
2022/08/20 05:46:40;;;;;;;10.68;5.68;;;;;;;33.73;35.35;94173.97;5090322;28;20287;-73
2022/08/20 05:49:07;;;;;;;7.82;5.60;;;;;;;32.89;36.47;94174.63;5090537;28;20229;-73
2022/08/20 05:51:35;;;;;;;8.57;5.40;;;;;;;33.12;36.46;94177.31;5090487;28;20202;-72
2022/08/20 05:54:03;;;;;;;6.97;5.60;;;;;;;33.52;35.60;94181.56;5089677;28;20649;-74
2022/08/20 05:56:30;;;;;;;7.07;5.55;;;;;;;33.88;35.21;94183.94;5090582;28;20202;-74
2022/08/20 05:59:02;;;;;;;6.28;5.60;;;;;;;34.15;34.78;94179.16;5090265;28;20206;-74
2022/08/20 06:01:29;;;;;;;6.07;5.38;;;;;;;34.37;34.73;94171.03;5079704;28;20205;-74
2022/08/20 06:06:40;;;;;;;8.63;5.60;;;;;;;34.59;33.95;94165.63;5076889;28;20291;-73
2022/08/20 06:09:07;;;;;;;6.78;6.00;;;;;;;34.91;33.62;94162.94;5083948;28;20211;-73
2022/08/20 06:11:35;;;;;;;8.15;5.55;;;;;;;35.62;33.02;94175.31;5089291;28;20294;-73
2022/08/20 06:14:03;;;;;;;11.68;5.72;;;;;;;36.15;32.39;94171.06;5089337;28;20322;-73
2022/08/20 06:16:30;;;;;;;6.40;5.78;;;;;;;36.84;31.58;94168.78;5089690;28;20321;-72
2022/08/20 06:18:57;;;;;;;7.00;5.97;;;;;;;37.10;31.17;94163.69;5088603;28;20328;-73
2022/08/20 06:21:24;;;;;;;7.15;5.95;;;;;;;36.94;30.94;94175.72;5089407;28;20213;-72
2022/08/20 06:23:51;;;;;;;8.00;5.78;;;;;;;36.49;31.65;94178.38;5089317;28;20287;-74
2022/08/20 06:26:18;;;;;;;8.55;5.60;;;;;;;36.29;31.47;94187.03;5088649;28;20291;-73
2022/08/20 06:28:45;;;;;;;8.15;5.65;;;;;;;36.15;31.80;94185.16;5089176;28;20205;-73
2022/08/20 06:31:13;;;;;;;8.93;5.75;;;;;;;36.86;30.98;94171.88;5088943;28;20274;-72
2022/08/20 06:33:39;;;;;;;6.68;5.82;;;;;;;36.79;31.65;94167.47;5088289;28;20279;-71
2022/08/20 06:36:07;;;;;;;7.10;5.63;;;;;;;36.27;31.66;94179.09;5088968;28;20738;-72
2022/08/20 06:38:34;;;;;;;8.07;6.43;;;;;;;35.94;32.23;94162.75;5087921;28;20206;-73
2022/08/20 06:41:01;;;;;;;8.02;6.00;;;;;;;35.22;33.00;94170.63;5089002;28;20797;-73
2022/08/20 06:43:30;;;;;;;6.40;5.72;;;;;;;35.33;33.19;94173.56;5088720;28;20213;-73
2022/08/20 06:45:57;;;;;;;6.95;5.95;;;;;;;35.27;33.14;94173.50;5088440;28;20210;-73
2022/08/20 06:48:25;;;;;;;7.57;6.00;;;;;;;35.71;32.87;94171.53;5088801;28;20206;-72
2022/08/20 06:50:52;;;;;;;7.10;6.40;;;;;;;34.85;34.05;94173.38;5088788;28;20628;-72
2022/08/20 06:53:20;;;;;;;9.77;6.28;;;;;;;35.25;33.75;94164.00;5088479;28;20637;-72
2022/08/20 06:55:51;;;;;;;6.88;6.18;;;;;;;36.11;33.06;94165.63;5088374;28;20218;-73
2022/08/20 06:58:19;;;;;;;10.55;6.85;;;;;;;35.79;33.32;94162.16;5088656;28;20210;-72
2022/08/20 07:00:47;;;;;;;7.95;6.00;;;;;;;35.80;33.11;94160.88;5088331;28;20209;-74
2022/08/20 07:03:15;;;;;;;12.60;6.57;;;;;;;36.27;32.76;94158.56;5075636;28;20198;-74
2022/08/20 07:05:44;;;;;;;8.90;6.60;;;;;;;35.66;33.36;94158.19;5088537;28;20280;-73
2022/08/20 07:08:13;;;;;;;8.38;6.03;;;;;;;34.95;34.21;94157.09;5087901;28;20280;-73
2022/08/20 07:10:41;;;;;;;6.45;5.70;;;;;;;34.50;35.12;94151.72;5088023;28;20206;-73
2022/08/20 07:13:08;;;;;;;8.43;6.05;;;;;;;33.23;36.66;94167.53;5088373;28;20635;-73
2022/08/20 07:15:35;;;;;;;8.32;6.85;;;;;;;33.13;37.61;94155.63;5087992;28;20815;-72
2022/08/20 07:18:05;;;;;;;8.73;6.57;;;;;;;33.04;37.54;94150.13;5088319;28;20241;-72
2022/08/20 07:20:34;;;;;;;10.70;6.53;;;;;;;32.81;38.32;94146.16;5088178;28;20206;-72
2022/08/20 07:23:02;;;;;;;7.80;6.40;;;;;;;32.14;39.12;94156.06;5088256;28;20661;-73
2022/08/20 07:25:30;;;;;;;7.07;6.10;;;;;;;31.14;40.84;94160.19;5087569;28;20777;-72
2022/08/20 07:28:01;;;;;;;7.65;5.90;;;;;;;31.71;39.97;94149.81;5087302;28;20254;-75
2022/08/20 07:33:13;;;;;;;8.82;6.20;;;;;;;30.77;41.87;94147.50;5088208;28;20193;-70
2022/08/20 07:35:40;;;;;;;7.25;6.22;;;;;;;31.21;41.35;94145.06;5087768;28;20555;-73
2022/08/20 07:38:14;;;;;;;7.13;6.40;;;;;;;31.34;41.24;94145.63;5087273;28;20334;-73
2022/08/20 07:40:41;;;;;;;7.65;6.60;;;;;;;31.29;41.19;94146.31;5086809;28;20566;-72
2022/08/20 07:43:09;;;;;;;8.23;6.28;;;;;;;31.33;41.60;94138.47;5087519;28;20195;-72
2022/08/20 07:45:37;;;;;;;7.80;6.72;;;;;;;31.68;41.15;94147.22;5087585;28;20203;-73
2022/08/20 07:48:09;;;;;;;8.23;6.47;;;;;;;32.32;39.62;94143.97;5087434;28;20234;-74
2022/08/20 07:50:36;;;;;;;6.53;5.93;;;;;;;32.83;39.04;94144.41;5087668;28;20649;-74
2022/08/20 07:53:03;;;;;;;7.80;6.40;;;;;;;33.09;38.35;94144.59;5087978;28;20202;-71
2022/08/20 07:55:31;;;;;;;7.38;6.22;;;;;;;32.96;38.43;94141.31;5087104;28;20681;-73
2022/08/20 07:58:06;;;;;;;9.07;6.55;;;;;;;31.41;41.04;94145.31;5087349;28;20214;-72
2022/08/20 08:00:33;;;;;;;7.10;6.35;;;;;;;32.13;39.44;94140.50;5085295;28;20280;-75
2022/08/20 08:03:00;;;;;;;12.65;8.80;;;;;;;32.24;39.45;94143.56;5087718;28;20685;-75
2022/08/20 08:05:28;;;;;;;8.77;6.45;;;;;;;32.74;38.03;94135.34;5087377;28;20206;-78
2022/08/20 08:07:56;;;;;;;8.85;6.20;;;;;;;32.75;38.38;94131.28;5088131;28;20237;-76
2022/08/20 08:10:23;;;;;;;7.20;6.50;;;;;;;32.48;38.46;94135.88;5087768;28;20225;-81
2022/08/20 08:12:58;;;;;;;8.38;5.97;;;;;;;32.34;38.68;94135.84;5087647;28;20210;-75
2022/08/20 08:15:28;;;;;;;6.65;5.78;;;;;;;32.55;38.20;94136.72;5087264;28;20185;-75
2022/08/20 08:17:58;;;;;;;7.20;6.22;;;;;;;32.44;38.88;94135.28;5087317;28;20242;-73
2022/08/20 08:20:25;;;;;;;7.85;6.53;;;;;;;31.77;39.57;94139.50;5087359;28;20778;-72
2022/08/20 08:22:52;;;;;;;7.70;6.40;;;;;;;31.77;39.64;94133.91;5087495;28;20190;-71
2022/08/20 08:25:20;;;;;;;9.95;6.32;;;;;;;31.19;40.84;94133.56;5087542;28;20281;-71
2022/08/20 08:27:47;;;;;;;7.40;6.18;;;;;;;31.47;40.71;94125.81;5087491;28;20226;-72
2022/08/20 08:30:17;;;;;;;9.10;6.63;;;;;;;32.03;39.58;94125.00;5086852;28;20244;-73
2022/08/20 08:35:31;;;;;;;8.75;6.28;;;;;;;32.62;37.55;94122.34;5087337;28;20244;-73
2022/08/20 08:38:01;;;;;;;6.88;6.18;;;;;;;32.74;38.08;94113.66;5087548;28;20199;-73
2022/08/20 08:40:30;;;;;;;7.00;6.20;;;;;;;33.14;37.88;94117.88;5073527;28;20210;-71
2022/08/20 08:42:59;;;;;;;7.18;6.47;;;;;;;32.84;38.29;94111.53;5089951;28;20694;-71
2022/08/20 08:45:34;;;;;;;7.97;6.60;;;;;;;33.16;37.88;94104.91;5090581;28;20213;-73
2022/08/20 08:48:01;;;;;;;7.40;6.70;;;;;;;32.92;38.18;94118.31;5086063;28;20291;-72
2022/08/20 08:50:32;;;;;;;8.98;6.93;;;;;;;32.70;38.08;94107.44;5091159;28;20603;-75
2022/08/20 08:53:04;;;;;;;9.27;6.93;;;;;;;32.80;37.71;94105.34;5090623;28;20208;-74
2022/08/20 08:55:32;;;;;;;7.40;6.22;;;;;;;32.05;38.91;94102.88;5090777;28;20209;-73
2022/08/20 08:58:02;;;;;;;7.28;6.38;;;;;;;31.34;39.97;94093.22;5090732;28;20207;-73
2022/08/20 09:00:30;;;;;;;8.32;6.43;;;;;;;31.49;40.48;94101.69;5090329;28;20232;-74
2022/08/20 09:03:01;;;;;;;7.05;6.35;;;;;;;31.31;41.07;94087.78;5091023;28;20202;-73
2022/08/20 09:05:34;;;;;;;7.00;6.30;;;;;;;31.99;39.75;94088.75;5090405;28;20194;-74
2022/08/20 09:08:03;;;;;;;8.60;6.97;;;;;;;32.29;39.13;94083.22;5090354;28;20215;-75
2022/08/20 09:10:30;;;;;;;7.65;6.25;;;;;;;32.83;38.89;94081.91;5090069;28;20225;-73
2022/08/20 09:12:57;;;;;;;10.13;6.30;;;;;;;32.62;38.33;94088.69;5089691;28;20655;-73
2022/08/20 09:15:23;;;;;;;10.15;6.25;;;;;;;32.59;38.22;94084.81;5089927;28;20543;-73
2022/08/20 09:17:51;;;;;;;8.00;6.10;;;;;;;32.56;38.07;94084.97;5090021;28;20226;-73
2022/08/20 09:20:19;;;;;;;6.97;6.28;;;;;;;32.08;39.18;94085.13;5090425;28;20676;-75
2022/08/20 09:22:47;;;;;;;9.05;6.65;;;;;;;32.09;39.66;94092.28;5090482;28;20198;-74
2022/08/20 09:25:14;;;;;;;7.63;6.53;;;;;;;31.84;39.71;94081.56;5089347;28;20215;-75
2022/08/20 09:27:40;;;;;;;9.75;6.93;;;;;;;32.18;39.46;94083.78;5089933;28;20234;-73
2022/08/20 09:30:09;;;;;;;7.20;6.30;;;;;;;32.03;38.90;94088.56;5089733;28;20681;-73
2022/08/20 09:32:36;;;;;;;8.25;6.60;;;;;;;32.14;38.82;94077.56;5089866;28;20202;-73
2022/08/20 09:35:05;;;;;;;7.03;6.32;;;;;;;32.41;38.56;94071.72;5089889;28;20198;-74
2022/08/20 09:37:32;;;;;;;8.10;6.80;;;;;;;32.77;38.28;94067.03;5089657;28;20214;-73
2022/08/20 09:39:59;;;;;;;8.23;6.35;;;;;;;33.12;37.35;94069.88;5089778;28;20339;-74
2022/08/20 09:42:29;;;;;;;8.98;6.68;;;;;;;32.62;38.75;94069.81;5089532;28;20561;-73
2022/08/20 09:44:57;;;;;;;7.78;6.07;;;;;;;32.95;36.66;94061.19;5089437;28;20653;-73
2022/08/20 09:47:24;;;;;;;6.63;5.90;;;;;;;33.19;36.07;94061.81;5089810;28;20237;-74
2022/08/20 09:49:51;;;;;;;7.05;6.25;;;;;;;33.70;35.48;94068.16;5089601;28;20267;-75
2022/08/20 09:52:23;;;;;;;6.20;5.32;;;;;;;33.11;34.85;94069.09;5089116;28;20723;-74
2022/08/20 09:54:51;;;;;;;7.47;6.03;;;;;;;32.41;36.60;94068.94;5089674;28;20315;-74
2022/08/20 09:57:19;;;;;;;6.60;5.95;;;;;;;32.25;35.91;94060.22;5089531;28;20210;-73
2022/08/20 09:59:53;;;;;;;7.63;5.88;;;;;;;32.97;34.71;94061.47;5089647;28;20206;-73
2022/08/20 10:02:20;;;;;;;6.47;5.82;;;;;;;33.54;34.81;94059.00;5089313;28;20281;-72
2022/08/20 10:04:47;;;;;;;6.97;5.55;;;;;;;33.44;34.89;94068.84;5089146;28;20209;-73
2022/08/20 10:07:14;;;;;;;6.95;5.88;;;;;;;33.37;34.92;94062.84;5089344;28;20224;-72
2022/08/20 10:09:42;;;;;;;7.75;6.18;;;;;;;33.31;36.15;94064.81;5089162;28;20206;-73
2022/08/20 10:12:09;;;;;;;6.82;6.13;;;;;;;33.35;36.53;94065.41;5089170;28;20198;-72
2022/08/20 10:14:35;;;;;;;6.00;5.40;;;;;;;33.39;35.15;94060.31;5085707;28;20198;-73
2022/08/20 10:17:03;;;;;;;6.15;5.25;;;;;;;33.54;33.96;94061.03;5088627;28;20325;-75
2022/08/20 10:19:31;;;;;;;6.10;5.40;;;;;;;34.13;32.89;94043.91;5088472;28;20239;-73
2022/08/20 10:21:59;;;;;;;6.30;5.70;;;;;;;34.72;32.17;94046.28;5089171;28;20236;-74
2022/08/20 10:24:27;;;;;;;6.25;5.63;;;;;;;34.59;32.71;94053.06;5089302;28;20282;-76
2022/08/20 10:26:57;;;;;;;7.25;5.68;;;;;;;34.13;34.58;94049.53;5089088;28;20259;-75
2022/08/20 10:29:24;;;;;;;7.38;6.05;;;;;;;34.00;34.32;94040.69;5088019;28;20186;-73
2022/08/20 10:31:52;;;;;;;7.80;6.03;;;;;;;33.44;35.35;94048.41;5088750;28;20206;-73
2022/08/20 10:34:19;;;;;;;8.32;6.30;;;;;;;33.89;34.65;94030.84;5088857;28;20263;-73
2022/08/20 10:36:46;;;;;;;8.98;6.40;;;;;;;33.83;34.32;94044.09;5089030;28;20207;-73
2022/08/20 10:39:13;;;;;;;7.20;5.72;;;;;;;33.18;34.16;94042.66;5088635;28;20224;-76
2022/08/20 10:41:39;;;;;;;9.50;6.18;;;;;;;33.27;35.27;94041.78;5088443;28;20214;-75
2022/08/20 10:44:07;;;;;;;7.95;5.82;;;;;;;33.42;34.35;94036.88;5087896;28;20263;-74
2022/08/20 10:46:34;;;;;;;6.85;6.10;;;;;;;33.40;34.53;94033.78;5088498;28;20198;-72
2022/08/20 10:49:01;;;;;;;7.43;5.65;;;;;;;33.77;34.10;94023.56;5088516;28;20233;-72
2022/08/20 10:51:28;;;;;;;7.47;6.00;;;;;;;33.66;34.44;94026.22;5088503;28;20201;-73
2022/08/20 10:53:55;;;;;;;9.75;6.38;;;;;;;33.38;34.46;94025.84;5088596;28;20208;-76
2022/08/20 10:56:22;;;;;;;7.95;6.28;;;;;;;34.10;33.37;94011.91;5088567;28;20202;-74
2022/08/20 10:58:48;;;;;;;7.30;6.07;;;;;;;34.32;33.00;94016.25;5088664;28;20202;-75
2022/08/20 11:01:17;;;;;;;7.22;6.18;;;;;;;34.47;33.29;94017.66;5088270;28;20550;-74
2022/08/20 11:03:43;;;;;;;6.20;5.60;;;;;;;34.22;33.91;94018.44;5087989;28;20301;-76
2022/08/20 11:06:10;;;;;;;7.28;5.80;;;;;;;33.60;34.35;94013.38;5087808;28;20212;-74
2022/08/20 11:08:37;;;;;;;7.10;5.97;;;;;;;33.97;33.95;94024.81;5088293;28;20837;-74
2022/08/20 11:11:05;;;;;;;7.40;6.40;;;;;;;33.92;33.76;94015.03;5088139;28;20205;-73
2022/08/20 11:13:32;;;;;;;7.25;6.53;;;;;;;34.58;33.42;94014.19;5087538;28;20210;-74
2022/08/20 11:15:59;;;;;;;7.88;6.85;;;;;;;35.07;32.93;94013.06;5087979;28;20202;-74
2022/08/20 11:18:27;;;;;;;7.22;6.50;;;;;;;35.79;32.30;94000.69;5088102;28;20198;-74
2022/08/20 11:20:55;;;;;;;9.25;6.50;;;;;;;35.93;31.38;93997.66;5088391;28;20201;-75
2022/08/20 11:23:22;;;;;;;7.38;5.82;;;;;;;35.98;31.70;93999.69;5088127;28;20230;-74
2022/08/20 11:25:51;;;;;;;6.90;6.20;;;;;;;36.01;31.31;94002.78;5088676;28;20202;-75
2022/08/20 11:28:18;;;;;;;6.93;6.22;;;;;;;35.42;32.44;93997.91;5087992;28;20242;-74
2022/08/20 11:30:46;;;;;;;7.20;6.20;;;;;;;33.54;34.57;94002.06;5088079;28;20333;-78
2022/08/20 11:33:13;;;;;;;7.43;6.22;;;;;;;33.08;35.56;93991.47;5087857;28;20245;-74
2022/08/20 11:35:41;;;;;;;8.27;6.18;;;;;;;33.00;35.96;93979.09;5087511;28;20281;-75
2022/08/20 11:38:08;;;;;;;6.55;5.78;;;;;;;32.46;36.85;93975.72;5087795;28;20217;-75
2022/08/20 11:40:34;;;;;;;6.95;6.03;;;;;;;32.62;37.67;93976.47;5087908;28;20197;-75
2022/08/20 11:43:01;;;;;;;7.57;5.85;;;;;;;32.28;37.26;93975.91;5087963;28;20398;-75
2022/08/20 11:45:28;;;;;;;6.75;5.85;;;;;;;31.94;37.75;93973.75;5087553;28;20245;-74
2022/08/20 11:47:55;;;;;;;9.82;6.68;;;;;;;32.34;36.99;93973.97;5087773;28;20294;-75